Time;durP1;ratioP1;P1;durP2;ratioP2;P2;SDS_P1;SDS_P2;PMS_P1;PMS_P2;Temp;Humidity;BMP_temperature;BMP_pressure;BME280_temperature;BME280_humidity;BME280_pressure;Samples;Min_cycle;Max_cycle;Signal;HPM_P1;HPM_P2
2023/09/11 00:01:16;;;;;;;9.50;7.80;;;;;;;20.23;100.00;98068.00;5053488;28;20197;-77
2023/09/11 00:03:43;;;;;;;8.50;7.70;;;;;;;20.23;100.00;98062.59;5055276;28;20215;-77
2023/09/11 00:06:09;;;;;;;8.97;8.07;;;;;;;20.24;100.00;98060.69;5053794;28;20691;-77
2023/09/11 00:08:35;;;;;;;8.93;8.17;;;;;;;20.28;100.00;98064.44;5042562;28;20313;-77
2023/09/11 00:11:04;;;;;;;9.17;8.27;;;;;;;20.25;100.00;98062.31;5035812;28;20217;-77
2023/09/11 00:13:31;;;;;;;9.20;8.30;;;;;;;20.27;100.00;98054.72;5039193;28;20221;-77
2023/09/11 00:15:58;;;;;;;11.63;8.17;;;;;;;20.23;100.00;98048.28;5048381;28;20229;-77
2023/09/11 00:18:26;;;;;;;9.23;8.33;;;;;;;20.20;100.00;98054.22;5036556;28;20296;-77
2023/09/11 00:20:54;;;;;;;10.50;8.00;;;;;;;20.22;100.00;98052.06;5035658;28;20726;-77
2023/09/11 00:23:20;;;;;;;9.37;7.80;;;;;;;20.13;100.00;98048.34;5035375;28;20197;-77
2023/09/11 00:25:47;;;;;;;9.13;7.97;;;;;;;20.14;100.00;98041.88;5050935;28;20229;-77
2023/09/11 00:28:13;;;;;;;9.23;7.97;;;;;;;20.13;100.00;98042.97;5040316;28;20575;-77
2023/09/11 00:30:39;;;;;;;11.57;8.60;;;;;;;20.16;100.00;98042.41;5045626;28;20669;-77
2023/09/11 00:33:06;;;;;;;10.03;8.80;;;;;;;20.12;100.00;98041.34;5035157;28;20232;-77
2023/09/11 00:35:32;;;;;;;10.53;9.00;;;;;;;20.10;100.00;98036.22;5042391;28;20197;-77
2023/09/11 00:37:59;;;;;;;9.77;8.77;;;;;;;20.10;100.00;98038.09;5051810;28;20217;-77
2023/09/11 00:40:25;;;;;;;9.43;8.53;;;;;;;20.08;100.00;98040.25;5035348;28;20201;-77
2023/09/11 00:42:51;;;;;;;10.50;8.27;;;;;;;20.03;100.00;98033.00;5034783;28;20217;-77
2023/09/11 00:45:19;;;;;;;9.43;8.07;;;;;;;20.02;100.00;98044.88;5052118;28;20217;-77
2023/09/11 00:47:47;;;;;;;10.37;8.77;;;;;;;20.03;100.00;98035.69;5039718;28;20224;-77
2023/09/11 00:50:16;;;;;;;10.03;8.53;;;;;;;20.00;100.00;98032.75;5041160;28;20198;-77
2023/09/11 00:52:43;;;;;;;10.13;9.17;;;;;;;19.95;100.00;98035.47;5053687;28;20213;-77
2023/09/11 00:55:10;;;;;;;11.03;8.90;;;;;;;19.90;100.00;98030.13;5035854;28;20679;-77
2023/09/11 00:57:37;;;;;;;10.50;8.97;;;;;;;19.86;100.00;98023.66;5035600;28;20230;-77
2023/09/11 01:00:04;;;;;;;9.97;8.80;;;;;;;19.81;100.00;98018.31;5034617;28;20202;-77
2023/09/11 01:02:32;;;;;;;9.40;8.60;;;;;;;19.83;100.00;98022.34;5053904;28;20205;-77
2023/09/11 01:04:59;;;;;;;11.97;9.03;;;;;;;19.85;100.00;98022.06;5048577;28;20232;-77
2023/09/11 01:07:26;;;;;;;9.90;8.83;;;;;;;19.83;100.00;98021.50;5054584;28;20228;-77
2023/09/11 01:09:53;;;;;;;10.03;9.10;;;;;;;19.87;100.00;98009.91;5053226;28;20275;-77
2023/09/11 01:12:19;;;;;;;11.03;9.83;;;;;;;19.86;100.00;98011.00;5036259;28;20197;-77
2023/09/11 01:14:45;;;;;;;9.90;9.00;;;;;;;19.87;100.00;98015.28;5052577;28;20198;-77
2023/09/11 01:17:14;;;;;;;9.83;8.93;;;;;;;19.84;100.00;98007.75;5054290;28;20228;-77
2023/09/11 01:20:12;;;;;;;9.63;8.73;;;;;;;19.77;100.00;98011.84;5036890;28;20213;-77
2023/09/11 01:22:53;;;;;;;10.03;9.00;;;;;;;19.81;100.00;98007.50;5052841;28;20189;-77
2023/09/11 01:25:40;;;;;;;10.37;9.20;;;;;;;19.72;100.00;98009.19;5045248;28;20210;-77
2023/09/11 01:28:16;;;;;;;9.93;8.93;;;;;;;19.69;100.00;98011.31;5034007;28;20225;-77
2023/09/11 01:30:45;;;;;;;10.17;9.17;;;;;;;19.63;100.00;97998.97;5034188;28;20267;-77
2023/09/11 01:33:12;;;;;;;9.77;8.80;;;;;;;19.58;100.00;98002.78;5048807;28;20207;-77
2023/09/11 01:35:39;;;;;;;11.10;9.20;;;;;;;19.63;100.00;98002.75;5053796;28;20197;-77
2023/09/11 01:38:05;;;;;;;10.47;9.47;;;;;;;19.68;100.00;97992.75;5053794;28;20247;-77
2023/09/11 01:40:36;;;;;;;9.87;8.87;;;;;;;19.60;100.00;97990.63;5036645;28;20212;-77
2023/09/11 01:43:08;;;;;;;9.87;8.97;;;;;;;19.57;100.00;97985.00;5027383;28;20665;-77
2023/09/11 01:45:36;;;;;;;10.27;9.20;;;;;;;19.54;100.00;97991.75;5033787;28;20214;-77
2023/09/11 01:48:05;;;;;;;10.83;9.83;;;;;;;19.52;100.00;97997.41;5033541;28;20596;-76
2023/09/11 01:50:32;;;;;;;10.83;9.73;;;;;;;19.55;100.00;97993.34;5033758;28;20649;-76
2023/09/11 01:53:04;;;;;;;9.83;8.83;;;;;;;19.51;100.00;97993.09;5039049;28;20224;-76
2023/09/11 01:55:32;;;;;;;10.10;9.20;;;;;;;19.52;100.00;97988.50;5036780;28;20195;-76
2023/09/11 01:57:58;;;;;;;11.93;9.30;;;;;;;19.54;100.00;97989.06;5046928;28;20233;-77
2023/09/11 02:00:25;;;;;;;9.73;8.83;;;;;;;19.48;100.00;97983.97;5053416;28;20201;-77
2023/09/11 02:02:55;;;;;;;10.80;8.67;;;;;;;19.48;100.00;97998.22;5053313;28;20208;-76
2023/09/11 02:05:22;;;;;;;10.97;9.80;;;;;;;19.48;100.00;97992.84;5053392;28;20245;-76
2023/09/11 02:07:48;;;;;;;11.00;9.43;;;;;;;19.45;100.00;97988.03;5051848;28;20221;-76
2023/09/11 02:10:14;;;;;;;10.40;9.50;;;;;;;19.45;100.00;97983.41;5052467;28;20664;-76
2023/09/11 02:12:41;;;;;;;12.97;9.47;;;;;;;19.44;100.00;97981.81;5053405;28;20197;-76
2023/09/11 02:15:08;;;;;;;9.70;8.80;;;;;;;19.46;100.00;97978.84;5052925;28;20198;-76
2023/09/11 02:17:34;;;;;;;10.50;9.43;;;;;;;19.45;100.00;97986.09;5053015;28;20594;-76
2023/09/11 02:20:01;;;;;;;9.57;8.67;;;;;;;19.45;100.00;97983.41;5053269;28;20201;-76
2023/09/11 02:22:28;;;;;;;10.00;9.03;;;;;;;19.40;100.00;97985.31;5039857;28;20304;-76
2023/09/11 02:24:54;;;;;;;9.97;9.10;;;;;;;19.34;100.00;97987.25;5036671;28;20197;-76
2023/09/11 02:27:21;;;;;;;10.20;9.20;;;;;;;19.37;100.00;97980.50;5053066;28;20219;-76
2023/09/11 02:29:47;;;;;;;9.80;8.83;;;;;;;19.30;100.00;97982.66;5053095;28;20197;-76
2023/09/11 02:32:13;;;;;;;11.67;8.70;;;;;;;19.22;100.00;97975.97;5044675;28;20202;-76
2023/09/11 02:34:39;;;;;;;10.87;9.20;;;;;;;19.26;100.00;97979.72;5033431;28;20229;-77
2023/09/11 02:37:06;;;;;;;9.97;8.97;;;;;;;19.19;100.00;97989.16;5034064;28;20682;-77
2023/09/11 02:39:31;;;;;;;14.23;9.87;;;;;;;19.23;100.00;97988.34;5052758;28;20220;-77
2023/09/11 02:41:58;;;;;;;10.50;9.20;;;;;;;19.00;100.00;97990.84;5052666;28;20209;-77
2023/09/11 02:44:24;;;;;;;10.93;9.43;;;;;;;18.90;100.00;97997.06;5047426;28;20724;-77
2023/09/11 02:46:50;;;;;;;10.60;9.60;;;;;;;18.98;100.00;97991.13;5033092;28;20234;-77
2023/09/11 02:49:17;;;;;;;9.60;8.63;;;;;;;19.07;100.00;97994.03;5042428;28;20205;-77
2023/09/11 02:51:44;;;;;;;10.57;9.57;;;;;;;18.98;100.00;97987.59;5052414;28;20684;-77
2023/09/11 02:54:10;;;;;;;10.17;9.13;;;;;;;18.82;100.00;97994.91;5035796;28;20572;-77
2023/09/11 02:56:38;;;;;;;11.10;9.90;;;;;;;18.93;100.00;98001.09;5048927;28;20206;-77
2023/09/11 02:59:05;;;;;;;10.50;9.43;;;;;;;18.94;100.00;97992.75;5052078;28;20229;-77
2023/09/11 03:01:32;;;;;;;13.83;10.10;;;;;;;18.86;100.00;97990.59;5052430;28;20201;-77
2023/09/11 03:03:59;;;;;;;13.40;10.33;;;;;;;18.87;100.00;97986.03;5046380;28;20708;-77
2023/09/11 03:06:25;;;;;;;11.27;10.03;;;;;;;18.83;100.00;97984.97;5032888;28;20243;-77
2023/09/11 03:08:52;;;;;;;11.43;10.27;;;;;;;18.90;100.00;97994.38;5035866;28;20607;-77
2023/09/11 03:11:18;;;;;;;12.80;9.73;;;;;;;18.86;100.00;97989.81;5032644;28;20653;-77
2023/09/11 03:13:45;;;;;;;10.57;9.57;;;;;;;18.76;100.00;97996.00;5032977;28;20246;-78
2023/09/11 03:16:14;;;;;;;11.37;9.67;;;;;;;18.69;100.00;97984.69;5033075;28;20198;-78
2023/09/11 03:18:41;;;;;;;10.30;9.30;;;;;;;18.71;100.00;97992.50;5033750;28;20218;-77
2023/09/11 03:21:08;;;;;;;11.30;10.20;;;;;;;18.70;100.00;97988.22;5034739;28;20202;-77
2023/09/11 03:23:35;;;;;;;11.27;10.10;;;;;;;18.65;100.00;97983.66;5050601;28;20205;-77
2023/09/11 03:26:01;;;;;;;12.03;10.40;;;;;;;18.61;100.00;97985.28;5042569;28;20595;-77
2023/09/11 03:28:29;;;;;;;10.30;8.60;;;;;;;18.54;100.00;97984.75;5049318;28;20225;-77
2023/09/11 03:30:56;;;;;;;11.37;9.10;;;;;;;18.50;100.00;97980.19;5036260;28;20209;-77
2023/09/11 03:33:22;;;;;;;10.17;9.07;;;;;;;18.51;100.00;97987.97;5036572;28;20198;-77
2023/09/11 03:35:49;;;;;;;10.43;9.43;;;;;;;18.55;100.00;97989.03;5036099;28;20206;-77
2023/09/11 03:38:16;;;;;;;9.63;8.73;;;;;;;18.51;100.00;97977.19;5041222;28;20225;-77
2023/09/11 03:40:44;;;;;;;10.53;9.47;;;;;;;18.50;100.00;97980.97;5039231;28;20202;-77
2023/09/11 03:43:10;;;;;;;11.03;9.50;;;;;;;18.49;100.00;97981.22;5035985;28;20208;-77
2023/09/11 03:45:37;;;;;;;10.33;9.30;;;;;;;18.38;100.00;97987.72;5036347;28;20226;-77
2023/09/11 03:48:03;;;;;;;11.50;9.90;;;;;;;18.37;100.00;97986.91;5036034;28;20688;-77
2023/09/11 03:50:30;;;;;;;10.10;9.20;;;;;;;18.45;100.00;97990.94;5044988;28;20766;-77
2023/09/11 03:52:56;;;;;;;10.70;9.20;;;;;;;18.44;100.00;97982.06;5038223;28;20248;-77
2023/09/11 03:55:22;;;;;;;10.30;9.23;;;;;;;18.41;100.00;97992.56;5050029;28;20194;-77
2023/09/11 03:57:49;;;;;;;10.70;9.60;;;;;;;18.34;100.00;97987.44;5047531;28;20351;-77
2023/09/11 04:00:16;;;;;;;11.47;9.70;;;;;;;18.42;100.00;97986.09;5047518;28;20314;-77
2023/09/11 04:02:42;;;;;;;10.30;9.23;;;;;;;18.36;100.00;97982.59;5035537;28;20206;-77
2023/09/11 04:05:09;;;;;;;10.73;9.67;;;;;;;18.31;100.00;97981.75;5047875;28;20564;-77
2023/09/11 04:07:35;;;;;;;10.60;9.70;;;;;;;18.33;100.00;97977.75;5049628;28;20559;-77
2023/09/11 04:10:02;;;;;;;10.70;9.63;;;;;;;18.33;100.00;97985.03;5055435;28;20291;-77
2023/09/11 04:12:28;;;;;;;10.83;9.83;;;;;;;18.37;100.00;97981.50;5037529;28;20202;-77
2023/09/11 04:14:54;;;;;;;13.93;10.43;;;;;;;18.34;100.00;97982.06;5035544;28;20296;-77
2023/09/11 04:17:21;;;;;;;11.17;10.07;;;;;;;18.33;100.00;97983.13;5035040;28;20727;-77
2023/09/11 04:19:47;;;;;;;11.87;10.77;;;;;;;18.33;100.00;97975.06;5035107;28;20672;-77
2023/09/11 04:22:13;;;;;;;10.67;9.67;;;;;;;18.36;100.00;97974.53;5035128;28;20206;-77
2023/09/11 04:24:40;;;;;;;11.17;10.13;;;;;;;18.32;100.00;97976.09;5034832;28;20673;-77
2023/09/11 04:27:06;;;;;;;11.23;10.17;;;;;;;18.29;100.00;97973.97;5035183;28;20711;-77
2023/09/11 04:29:32;;;;;;;13.73;10.60;;;;;;;18.27;100.00;97989.56;5035820;28;20216;-77
2023/09/11 04:31:59;;;;;;;10.87;9.87;;;;;;;18.28;100.00;97987.69;5034899;28;20764;-77
2023/09/11 04:34:27;;;;;;;11.50;10.37;;;;;;;18.24;100.00;97986.59;5034090;28;20205;-77
2023/09/11 04:36:53;;;;;;;13.40;11.47;;;;;;;18.23;100.00;97977.72;5034612;28;20572;-77
2023/09/11 04:39:23;;;;;;;10.97;9.87;;;;;;;18.24;100.00;97973.94;5034446;28;20210;-77
2023/09/11 04:41:49;;;;;;;11.97;10.17;;;;;;;18.19;100.00;97976.63;5034303;28;20687;-77
2023/09/11 04:44:16;;;;;;;11.30;10.13;;;;;;;18.19;100.00;97970.47;5047761;28;20212;-77
2023/09/11 04:46:42;;;;;;;10.47;9.43;;;;;;;18.15;100.00;97972.88;5054498;28;20225;-77
2023/09/11 04:49:08;;;;;;;10.93;10.03;;;;;;;17.96;100.00;97973.69;5054435;28;20232;-77
2023/09/11 04:51:35;;;;;;;11.23;10.23;;;;;;;18.01;100.00;97971.78;5054347;28;20701;-77
2023/09/11 04:54:01;;;;;;;11.63;10.47;;;;;;;18.01;100.00;97973.69;5043984;28;20209;-77
2023/09/11 04:56:27;;;;;;;11.37;10.13;;;;;;;18.07;100.00;97975.28;5034367;28;20221;-77
2023/09/11 04:58:54;;;;;;;11.00;10.10;;;;;;;18.08;100.00;97982.28;5034131;28;20234;-77
2023/09/11 05:01:20;;;;;;;11.67;10.10;;;;;;;18.09;100.00;97978.53;5033968;28;20564;-77
2023/09/11 05:03:46;;;;;;;11.27;9.93;;;;;;;18.01;100.00;97977.16;5033967;28;20669;-77
2023/09/11 05:06:13;;;;;;;10.90;9.80;;;;;;;18.03;100.00;97982.28;5034010;28;20558;-77
2023/09/11 05:08:39;;;;;;;14.10;10.93;;;;;;;17.99;100.00;97971.25;5033881;28;20717;-77
2023/09/11 05:11:05;;;;;;;11.43;10.27;;;;;;;17.99;100.00;97976.63;5038485;28;20201;-77
2023/09/11 05:13:32;;;;;;;12.70;10.37;;;;;;;18.09;100.00;97973.16;5051060;28;20197;-77
2023/09/11 05:15:58;;;;;;;13.83;11.17;;;;;;;18.15;100.00;97982.84;5052333;28;20213;-77
2023/09/11 05:18:24;;;;;;;15.83;10.30;;;;;;;18.18;100.00;97980.41;5061385;28;20217;-78
2023/09/11 05:20:51;;;;;;;11.77;10.43;;;;;;;18.13;100.00;97980.41;5057044;28;20213;-77
2023/09/11 05:23:18;;;;;;;11.43;10.00;;;;;;;18.20;100.00;97980.16;5061594;28;20203;-77
2023/09/11 05:25:45;;;;;;;13.03;10.67;;;;;;;18.28;100.00;97972.34;5050950;28;20692;-77
2023/09/11 05:28:12;;;;;;;11.77;10.57;;;;;;;18.37;100.00;97975.34;5044645;28;20227;-77
2023/09/11 05:30:39;;;;;;;11.37;10.27;;;;;;;18.40;100.00;97980.16;5050638;28;20548;-77
2023/09/11 05:33:05;;;;;;;11.63;10.13;;;;;;;18.51;100.00;97982.56;5036970;28;20202;-77
2023/09/11 05:35:32;;;;;;;12.33;11.03;;;;;;;18.56;100.00;97989.84;5052906;28;20216;-77
2023/09/11 05:37:58;;;;;;;13.60;10.70;;;;;;;18.61;100.00;97989.84;5052159;28;20229;-77
2023/09/11 05:40:25;;;;;;;12.03;10.63;;;;;;;18.63;100.00;97993.88;5051352;28;20284;-77
2023/09/11 05:42:51;;;;;;;12.97;10.83;;;;;;;18.72;100.00;97992.25;5053022;28;20209;-77
2023/09/11 05:45:17;;;;;;;12.67;10.60;;;;;;;18.79;100.00;98000.88;5053075;28;20207;-77
2023/09/11 05:47:44;;;;;;;16.00;10.90;;;;;;;18.85;100.00;97999.78;5049857;28;20228;-77
2023/09/11 05:50:11;;;;;;;11.00;9.70;;;;;;;18.89;100.00;98002.72;5052895;28;20197;-77
2023/09/11 05:52:38;;;;;;;11.10;10.10;;;;;;;18.92;100.00;98004.88;5038968;28;20248;-77
2023/09/11 05:55:04;;;;;;;10.80;9.20;;;;;;;18.97;100.00;98004.84;5033163;28;20206;-77
2023/09/11 05:57:31;;;;;;;10.90;9.90;;;;;;;19.06;100.00;98005.91;5042688;28;20225;-77
2023/09/11 05:59:57;;;;;;;12.57;10.73;;;;;;;19.18;100.00;98004.53;5052720;28;20201;-77
2023/09/11 06:02:24;;;;;;;12.43;9.80;;;;;;;19.19;100.00;98003.44;5051897;28;20205;-77
2023/09/11 06:04:50;;;;;;;11.60;10.47;;;;;;;19.28;100.00;98009.91;5052118;28;20656;-77
2023/09/11 06:07:16;;;;;;;11.37;10.33;;;;;;;19.35;100.00;98001.50;5052801;28;20225;-77
2023/09/11 06:09:43;;;;;;;11.07;10.00;;;;;;;19.41;100.00;98000.44;5052835;28;20216;-77
2023/09/11 06:12:09;;;;;;;11.63;9.93;;;;;;;19.39;100.00;98005.28;5052977;28;20667;-77
2023/09/11 06:14:37;;;;;;;11.20;10.20;;;;;;;19.48;100.00;98003.63;5052802;28;20668;-77
2023/09/11 06:19:45;;;;;;;11.97;10.40;;;;;;;19.76;100.00;98002.16;5033307;28;20239;-77
2023/09/11 06:22:11;;;;;;;10.60;9.60;;;;;;;19.67;100.00;98008.13;5052731;28;20209;-77
2023/09/11 06:24:37;;;;;;;15.53;9.83;;;;;;;19.71;100.00;98015.66;5053118;28;20576;-77
2023/09/11 06:27:07;;;;;;;10.90;9.80;;;;;;;19.76;100.00;98021.81;5051985;28;20225;-77
2023/09/11 06:29:34;;;;;;;11.17;9.90;;;;;;;19.83;100.00;98016.94;5053114;28;20209;-77
2023/09/11 06:32:00;;;;;;;12.73;10.17;;;;;;;19.89;100.00;98015.03;5052223;28;20200;-77
2023/09/11 06:34:29;;;;;;;11.93;10.43;;;;;;;19.93;100.00;98018.78;5052068;28;20206;-77
2023/09/11 06:36:56;;;;;;;11.53;9.90;;;;;;;19.96;100.00;98024.41;5051912;28;20284;-77
2023/09/11 06:39:22;;;;;;;9.90;8.70;;;;;;;20.07;100.00;98025.16;5052528;28;20224;-77
2023/09/11 06:41:48;;;;;;;11.30;9.03;;;;;;;20.11;100.00;98027.03;5052725;28;20212;-77
2023/09/11 06:44:15;;;;;;;14.20;9.67;;;;;;;20.13;100.00;98022.19;5052632;28;20212;-77
2023/09/11 06:46:41;;;;;;;12.60;9.43;;;;;;;20.29;100.00;98020.16;5052178;28;20217;-77
2023/09/11 06:49:08;;;;;;;9.33;8.37;;;;;;;20.37;100.00;98023.06;5051869;28;20228;-77
2023/09/11 06:51:34;;;;;;;8.53;7.67;;;;;;;20.40;100.00;98024.41;5052759;28;20208;-77
2023/09/11 06:54:03;;;;;;;9.90;8.13;;;;;;;20.48;100.00;98021.88;5052359;28;20209;-77
2023/09/11 06:56:29;;;;;;;13.03;9.10;;;;;;;20.51;100.00;98013.22;5051676;28;20212;-77
2023/09/11 06:58:55;;;;;;;14.47;9.17;;;;;;;20.55;100.00;98018.88;5056177;28;20248;-77
2023/09/11 07:01:22;;;;;;;11.20;8.73;;;;;;;20.60;100.00;98019.63;5056926;28;20212;-76
2023/09/11 07:03:48;;;;;;;14.17;8.57;;;;;;;20.73;100.00;98012.75;5056233;28;20201;-76
2023/09/11 07:06:15;;;;;;;10.27;8.57;;;;;;;20.82;100.00;98016.47;5041279;28;20696;-75
2023/09/11 07:08:41;;;;;;;9.83;8.83;;;;;;;20.98;100.00;98017.97;5048708;28;20242;-76
2023/09/11 07:11:07;;;;;;;13.87;9.50;;;;;;;21.01;100.00;98017.38;5056151;28;20205;-76
2023/09/11 07:13:34;;;;;;;11.03;8.90;;;;;;;21.07;100.00;98024.34;5054878;28;20223;-76
2023/09/11 07:16:02;;;;;;;13.70;8.73;;;;;;;21.10;100.00;98021.88;5055441;28;20205;-76
2023/09/11 07:18:28;;;;;;;9.80;8.50;;;;;;;21.13;100.00;98026.72;5055581;28;20257;-76
2023/09/11 07:20:55;;;;;;;9.50;8.53;;;;;;;21.25;100.00;98023.63;5055838;28;20205;-76
2023/09/11 07:23:24;;;;;;;10.80;8.80;;;;;;;21.28;100.00;98023.03;5056301;28;20205;-76
2023/09/11 07:25:52;;;;;;;8.90;7.87;;;;;;;21.33;100.00;98022.97;5056242;28;20205;-76
2023/09/11 07:28:18;;;;;;;13.10;8.60;;;;;;;21.53;100.00;98025.44;5056084;28;20237;-76
2023/09/11 07:30:45;;;;;;;11.17;8.60;;;;;;;21.45;100.00;98017.97;5055821;28;20220;-76
2023/09/11 07:33:12;;;;;;;10.70;8.73;;;;;;;21.63;100.00;98028.00;5035914;28;20264;-76
2023/09/11 07:35:38;;;;;;;8.53;7.73;;;;;;;21.67;100.00;98016.34;5046888;28;20198;-77
2023/09/11 07:38:05;;;;;;;10.17;9.07;;;;;;;21.72;100.00;98020.88;5055598;28;20229;-77
2023/09/11 07:40:32;;;;;;;10.70;9.20;;;;;;;21.80;100.00;98014.84;5055493;28;20272;-77
2023/09/11 07:42:58;;;;;;;9.97;8.70;;;;;;;21.79;100.00;98019.44;5055856;28;20667;-77
2023/09/11 07:45:25;;;;;;;9.97;8.90;;;;;;;21.86;100.00;98019.88;5055183;28;20208;-77
2023/09/11 07:47:51;;;;;;;12.00;7.97;;;;;;;21.88;100.00;98019.59;5055166;28;20252;-77
2023/09/11 07:50:18;;;;;;;12.33;8.90;;;;;;;21.89;100.00;98019.28;5055773;28;20259;-77
2023/09/11 07:52:44;;;;;;;9.88;8.38;;;;;;;22.00;100.00;98020.75;5055521;28;20213;-77
2023/09/11 07:55:10;;;;;;;11.60;8.93;;;;;;;22.08;100.00;98012.00;5055025;28;20205;-77
2023/09/11 07:57:40;;;;;;;10.10;8.38;;;;;;;22.19;100.00;98021.56;5055315;28;20603;-77
2023/09/11 08:00:08;;;;;;;11.70;8.80;;;;;;;22.27;100.00;98014.66;5055395;28;20505;-77
2023/09/11 08:02:35;;;;;;;10.40;8.70;;;;;;;22.23;100.00;98019.88;5053808;28;20233;-77
2023/09/11 08:05:01;;;;;;;9.70;8.70;;;;;;;22.29;100.00;98021.41;5055216;28;20575;-76
2023/09/11 08:07:28;;;;;;;12.07;9.47;;;;;;;22.34;100.00;98023.25;5055200;28;20229;-74
2023/09/11 08:09:54;;;;;;;12.10;9.00;;;;;;;22.61;100.00;98023.38;5053704;28;20232;-74
2023/09/11 08:12:20;;;;;;;11.85;8.63;;;;;;;22.62;100.00;98023.09;5053301;28;20220;-74
2023/09/11 08:14:47;;;;;;;12.77;8.82;;;;;;;22.63;100.00;98016.56;5054596;28;20283;-77
2023/09/11 08:17:13;;;;;;;10.88;8.80;;;;;;;22.65;100.00;98017.03;5044806;28;20226;-74
2023/09/11 08:19:40;;;;;;;9.77;8.02;;;;;;;22.81;100.00;98009.47;5041914;28;20212;-74
2023/09/11 08:22:06;;;;;;;9.52;8.50;;;;;;;22.89;100.00;98020.41;5054921;28;20669;-74
2023/09/11 08:24:32;;;;;;;13.00;9.00;;;;;;;23.15;100.00;98020.78;5050589;28;20217;-75
2023/09/11 08:26:59;;;;;;;11.10;8.35;;;;;;;23.14;100.00;98019.13;5054949;28;20228;-75
2023/09/11 08:29:26;;;;;;;9.75;8.00;;;;;;;23.12;100.00;98024.88;5037206;28;20659;-74
2023/09/11 08:31:52;;;;;;;12.32;7.82;;;;;;;23.35;100.00;98026.63;5035050;28;20202;-74
2023/09/11 08:34:18;;;;;;;9.40;8.35;;;;;;;23.37;100.00;98031.75;5042317;28;20205;-75
2023/09/11 08:36:45;;;;;;;11.90;7.53;;;;;;;23.33;100.00;98028.84;5053537;28;20208;-75
2023/09/11 08:39:11;;;;;;;9.18;7.88;;;;;;;23.43;100.00;98033.28;5062101;28;20247;-75
2023/09/11 08:41:39;;;;;;;12.77;8.20;;;;;;;23.51;100.00;98029.84;5040128;28;20202;-74
2023/09/11 08:44:05;;;;;;;10.05;8.73;;;;;;;23.80;100.00;98033.03;5038567;28;20209;-74
2023/09/11 08:46:34;;;;;;;9.25;8.35;;;;;;;23.94;100.00;98036.56;5045588;28;20201;-74
2023/09/11 08:49:03;;;;;;;12.68;8.23;;;;;;;23.95;100.00;98030.81;5053090;28;20734;-74
2023/09/11 08:51:42;;;;;;;9.15;7.75;;;;;;;23.70;100.00;98022.41;5050660;28;20205;-74
2023/09/11 08:54:09;;;;;;;10.68;7.75;;;;;;;23.89;100.00;98028.50;5053619;28;20559;-74
2023/09/11 08:56:36;;;;;;;7.90;7.13;;;;;;;23.82;100.00;98022.66;5036352;28;20605;-74
2023/09/11 08:59:05;;;;;;;9.48;7.65;;;;;;;24.05;100.00;98024.34;5053926;28;20241;-74
2023/09/11 09:01:32;;;;;;;12.43;7.75;;;;;;;24.17;100.00;98032.78;5054022;28;20206;-74
2023/09/11 09:04:00;;;;;;;9.43;7.80;;;;;;;24.34;100.00;98024.78;5053486;28;20209;-74
2023/09/11 09:06:28;;;;;;;9.43;7.90;;;;;;;24.48;98.25;98018.19;5054011;28;20231;-74
2023/09/11 09:08:54;;;;;;;12.20;8.35;;;;;;;24.64;96.88;98019.41;5054229;28;20221;-74
2023/09/11 09:11:22;;;;;;;9.18;7.13;;;;;;;24.81;95.58;98026.88;5053679;28;20524;-74
2023/09/11 09:13:48;;;;;;;10.35;7.80;;;;;;;24.65;99.67;98020.25;5053655;28;20671;-74
2023/09/11 09:16:15;;;;;;;11.00;7.97;;;;;;;24.72;99.10;98021.41;5054035;28;20213;-73
2023/09/11 09:18:49;;;;;;;10.52;7.38;;;;;;;25.01;92.62;98013.56;5053215;28;20221;-73
2023/09/11 09:21:18;;;;;;;10.90;7.85;;;;;;;25.09;94.87;98009.25;5033472;28;20205;-74
2023/09/11 09:23:45;;;;;;;11.70;7.22;;;;;;;25.37;93.47;98013.44;5033877;28;20217;-75
2023/09/11 09:26:12;;;;;;;9.95;7.20;;;;;;;25.49;92.20;98014.44;5033807;28;20209;-76
2023/09/11 09:28:47;;;;;;;8.65;7.00;;;;;;;25.59;93.96;98002.44;5032970;28;20239;-75
2023/09/11 09:31:22;;;;;;;10.52;7.50;;;;;;;25.61;92.05;98005.66;5033523;28;20606;-75
2023/09/11 09:33:52;;;;;;;12.23;7.78;;;;;;;25.51;90.30;98009.47;5034499;28;20186;-75
2023/09/11 09:36:18;;;;;;;9.93;7.63;;;;;;;25.56;89.79;98012.03;5033710;28;20213;-76
2023/09/11 09:38:44;;;;;;;9.15;7.40;;;;;;;25.49;90.72;98000.81;5033599;28;20230;-76
2023/09/11 09:41:12;;;;;;;11.40;7.10;;;;;;;25.76;89.81;97999.75;5052190;28;20209;-76
2023/09/11 09:43:38;;;;;;;10.85;7.43;;;;;;;25.89;88.36;97999.63;5053415;28;20202;-76
2023/09/11 09:46:19;;;;;;;11.30;7.38;;;;;;;25.96;89.69;97989.06;5039217;28;20579;-76
2023/09/11 09:48:45;;;;;;;12.43;7.38;;;;;;;26.15;87.74;97997.72;5047520;28;20654;-76
2023/09/11 09:51:11;;;;;;;8.32;7.40;;;;;;;26.13;87.42;98004.63;5041804;28;20209;-76
2023/09/11 09:53:41;;;;;;;8.52;7.25;;;;;;;26.19;88.03;97993.25;5033343;28;20209;-76
2023/09/11 09:56:09;;;;;;;10.18;7.50;;;;;;;26.33;87.27;97984.94;5033058;28;20248;-76
2023/09/11 09:58:38;;;;;;;7.47;6.78;;;;;;;26.42;86.22;97996.63;5032718;28;20233;-75
2023/09/11 10:01:07;;;;;;;13.25;7.85;;;;;;;26.64;82.17;97988.28;5032905;28;20581;-76
2023/09/11 10:03:50;;;;;;;8.85;7.30;;;;;;;26.48;83.38;97987.16;5032989;28;20671;-76
2023/09/11 10:06:28;;;;;;;10.65;7.40;;;;;;;26.59;85.14;97988.47;5047102;28;20212;-76
2023/09/11 10:09:11;;;;;;;10.75;7.00;;;;;;;27.04;79.50;97981.41;5053160;28;20240;-76
2023/09/11 10:11:39;;;;;;;8.05;6.80;;;;;;;26.88;80.79;97972.19;5052809;28;20264;-76
2023/09/11 10:14:07;;;;;;;7.55;6.78;;;;;;;27.12;80.81;97977.06;5052860;28;20232;-77
2023/09/11 10:16:34;;;;;;;8.45;7.10;;;;;;;26.37;72.71;97969.53;5050930;28;20197;-78
2023/09/11 10:19:02;;;;;;;10.63;7.32;;;;;;;26.70;73.50;97962.44;5050994;28;20221;-77
2023/09/11 10:21:30;;;;;;;10.18;6.88;;;;;;;26.89;72.18;97960.13;5056327;28;20212;-77
2023/09/11 10:23:57;;;;;;;11.68;6.72;;;;;;;27.24;69.75;97958.09;5058646;28;20209;-77
2023/09/11 10:26:28;;;;;;;9.18;6.78;;;;;;;27.00;71.59;97953.19;5055523;28;20212;-77
2023/09/11 10:28:59;;;;;;;9.90;6.43;;;;;;;27.57;67.26;97956.31;5060238;28;20239;-76
2023/09/11 10:31:32;;;;;;;11.07;6.55;;;;;;;27.77;65.24;97948.16;5056600;28;20220;-77
2023/09/11 10:34:02;;;;;;;9.27;7.10;;;;;;;27.56;62.20;97949.22;5054668;28;20208;-77
2023/09/11 10:36:35;;;;;;;10.65;6.55;;;;;;;27.69;62.72;97949.00;5063313;28;20211;-77
2023/09/11 10:39:05;;;;;;;9.85;6.45;;;;;;;27.72;63.28;97942.84;5062497;28;20718;-77
2023/09/11 10:41:33;;;;;;;8.93;6.47;;;;;;;27.86;62.42;97948.91;5064620;28;20701;-77
2023/09/11 10:43:59;;;;;;;9.07;6.40;;;;;;;27.69;62.34;97946.28;5060950;28;20201;-77
2023/09/11 10:46:38;;;;;;;8.90;6.57;;;;;;;28.05;60.62;97940.22;5064488;28;20197;-76
2023/09/11 10:49:22;;;;;;;9.13;6.60;;;;;;;28.10;58.50;97938.09;5047589;28;20231;-76
2023/09/11 10:51:50;;;;;;;13.82;6.75;;;;;;;28.06;56.52;97939.91;5063081;28;20209;-77
2023/09/11 10:54:21;;;;;;;9.13;6.80;;;;;;;27.92;55.47;97927.63;5064869;28;20193;-77
2023/09/11 10:56:50;;;;;;;7.35;6.20;;;;;;;28.08;57.10;97931.38;5061396;28;20693;-77
2023/09/11 10:59:17;;;;;;;9.25;6.63;;;;;;;28.32;55.46;97931.47;5056534;28;20209;-76
2023/09/11 11:01:47;;;;;;;9.55;6.95;;;;;;;28.36;53.94;97925.00;5058153;28;20254;-76
2023/09/11 11:04:17;;;;;;;10.57;6.82;;;;;;;27.79;55.70;97932.22;5047154;28;20193;-77
2023/09/11 11:06:46;;;;;;;10.80;6.60;;;;;;;28.29;56.09;97918.44;5063067;28;20663;-77
2023/09/11 11:09:33;;;;;;;11.48;6.65;;;;;;;28.18;55.16;97917.28;5064446;28;20683;-77
2023/09/11 11:12:03;;;;;;;9.00;6.38;;;;;;;28.24;54.40;97916.75;5062230;28;20209;-77
2023/09/11 11:14:29;;;;;;;6.60;5.75;;;;;;;28.11;54.42;97906.88;5061911;28;20198;-77
2023/09/11 11:17:10;;;;;;;7.82;6.30;;;;;;;28.52;52.94;97909.56;5064456;28;20205;-77
2023/09/11 11:19:40;;;;;;;10.38;6.10;;;;;;;28.51;51.38;97905.25;5064150;28;20575;-77
2023/09/11 11:22:08;;;;;;;7.78;5.03;;;;;;;28.31;51.98;97900.56;5060634;28;20201;-77
2023/09/11 11:24:51;;;;;;;8.70;5.85;;;;;;;28.52;52.00;97900.59;5058141;28;20247;-77